createdAt,value
2018-08-20T00:00:54.926Z,19.90
2018-08-20T00:03:23.385Z,19.80
2018-08-20T00:05:53.452Z,19.80
2018-08-20T00:08:23.288Z,19.80
2018-08-20T00:10:54.008Z,19.80
2018-08-20T00:13:22.310Z,19.70
2018-08-20T00:15:50.819Z,19.80
2018-08-20T00:18:24.502Z,19.80
2018-08-20T00:20:52.850Z,19.70
2018-08-20T00:23:21.506Z,19.70
2018-08-20T00:25:49.974Z,19.70
2018-08-20T00:28:18.441Z,19.70
2018-08-20T00:30:46.924Z,19.60
2018-08-20T00:33:15.327Z,19.70
2018-08-20T00:35:44.441Z,19.60
2018-08-20T00:38:14.520Z,19.60
2018-08-20T00:40:43.274Z,19.60
2018-08-20T00:43:11.866Z,19.70
2018-08-20T00:45:40.191Z,19.70
2018-08-20T00:48:08.874Z,19.70
2018-08-20T00:50:37.312Z,19.60
2018-08-20T00:53:05.690Z,19.60
2018-08-20T00:55:34.077Z,19.60
2018-08-20T00:58:02.665Z,19.50
2018-08-20T01:00:31.075Z,19.50
2018-08-20T01:02:59.570Z,19.50
2018-08-20T01:05:27.965Z,19.40
2018-08-20T01:07:56.346Z,19.40
2018-08-20T01:10:24.765Z,19.40
2018-08-20T01:12:53.164Z,19.40
2018-08-20T01:15:21.607Z,19.40
2018-08-20T01:17:50.039Z,19.30
2018-08-20T01:20:18.468Z,19.20
2018-08-20T01:22:46.789Z,19.20
2018-08-20T01:25:15.114Z,19.20
2018-08-20T01:27:50.370Z,19.20
2018-08-20T01:30:18.832Z,19.20
2018-08-20T01:32:47.204Z,19.30
2018-08-20T01:35:26.059Z,19.30
2018-08-20T01:37:54.615Z,19.20
2018-08-20T01:40:22.982Z,19.20
2018-08-20T01:42:51.424Z,19.20
2018-08-20T01:45:19.846Z,19.20
2018-08-20T01:47:48.226Z,19.30
2018-08-20T01:50:16.648Z,19.30
2018-08-20T01:52:45.025Z,19.30
2018-08-20T01:55:13.483Z,19.20
2018-08-20T01:57:41.834Z,19.20
2018-08-20T02:00:10.323Z,19.20
2018-08-20T02:02:38.701Z,19.30
2018-08-20T02:05:07.823Z,19.30
2018-08-20T02:07:36.482Z,19.30
2018-08-20T02:10:06.009Z,19.30
2018-08-20T02:12:34.596Z,19.30
2018-08-20T02:15:03.715Z,19.30
2018-08-20T02:17:32.031Z,19.30
2018-08-20T02:20:00.436Z,19.40
2018-08-20T02:22:28.826Z,19.40
2018-08-20T02:24:57.136Z,19.40
2018-08-20T02:27:25.550Z,19.50
2018-08-20T02:29:53.988Z,19.40
2018-08-20T02:32:22.371Z,19.40
2018-08-20T02:34:50.749Z,19.30
2018-08-20T02:37:19.124Z,19.30
2018-08-20T02:39:47.549Z,19.20
2018-08-20T02:42:15.956Z,19.20
2018-08-20T02:44:44.398Z,19.10
2018-08-20T02:47:12.865Z,19.10
2018-08-20T02:49:41.319Z,19.00
2018-08-20T02:52:09.775Z,18.90
2018-08-20T02:54:38.131Z,18.90
2018-08-20T02:57:06.547Z,18.90
2018-08-20T02:59:34.858Z,18.90
2018-08-20T03:02:03.267Z,18.90
2018-08-20T03:04:31.657Z,18.80
2018-08-20T03:07:00.068Z,18.80
2018-08-20T03:09:28.448Z,18.80
2018-08-20T03:11:56.805Z,18.80
2018-08-20T03:14:25.189Z,18.80
2018-08-20T03:16:53.580Z,18.80
2018-08-20T03:19:21.901Z,18.70
2018-08-20T03:21:50.246Z,18.70
2018-08-20T03:24:18.549Z,18.60
2018-08-20T03:26:46.989Z,18.60
2018-08-20T03:29:15.355Z,18.50
2018-08-20T03:31:43.763Z,18.50
2018-08-20T03:34:12.218Z,18.50
2018-08-20T03:36:40.636Z,18.50
2018-08-20T03:39:09.123Z,18.50
2018-08-20T03:41:37.480Z,18.40
2018-08-20T03:44:05.911Z,18.50
2018-08-20T03:46:34.369Z,18.50
2018-08-20T03:49:02.696Z,18.50
2018-08-20T03:51:31.050Z,18.50
2018-08-20T03:53:59.427Z,18.40
2018-08-20T03:56:27.810Z,18.40
2018-08-20T03:58:56.250Z,18.40
2018-08-20T04:01:25.631Z,18.40
2018-08-20T04:03:54.507Z,18.40
2018-08-20T04:06:22.905Z,18.40
2018-08-20T04:08:51.306Z,18.30
2018-08-20T04:11:19.748Z,18.30
2018-08-20T04:13:48.067Z,18.30
2018-08-20T04:16:16.530Z,18.20
2018-08-20T04:18:45.046Z,18.30
2018-08-20T04:21:13.438Z,18.20
2018-08-20T04:23:41.817Z,18.20
2018-08-20T04:26:10.233Z,18.30
2018-08-20T04:28:38.637Z,18.30
2018-08-20T04:31:07.023Z,18.30
2018-08-20T04:33:35.400Z,18.30
2018-08-20T04:36:03.777Z,18.30
2018-08-20T04:38:32.208Z,18.40
2018-08-20T04:41:00.568Z,18.30
2018-08-20T04:43:29.048Z,18.40
2018-08-20T04:45:57.365Z,18.40
2018-08-20T04:48:25.750Z,18.40
2018-08-20T04:50:54.242Z,18.40
2018-08-20T04:53:22.508Z,18.50
2018-08-20T04:55:50.960Z,18.50
2018-08-20T04:58:19.543Z,18.60
2018-08-20T05:00:47.939Z,18.60
2018-08-20T05:03:16.315Z,18.70
2018-08-20T05:05:44.866Z,18.80
2018-08-20T05:08:13.441Z,18.80
2018-08-20T05:10:41.846Z,18.80
2018-08-20T05:13:10.329Z,18.80
2018-08-20T05:15:38.726Z,18.80
2018-08-20T05:18:07.182Z,18.90
2018-08-20T05:20:35.537Z,19.00
2018-08-20T05:23:03.971Z,19.20
2018-08-20T05:25:32.361Z,19.20
2018-08-20T05:28:00.715Z,19.40
2018-08-20T05:30:29.178Z,19.40
2018-08-20T05:32:57.643Z,19.50
2018-08-20T05:35:26.215Z,19.60
2018-08-20T05:37:54.647Z,19.80
2018-08-20T05:40:22.976Z,20.00
2018-08-20T05:42:51.409Z,20.10
2018-08-20T05:45:19.839Z,20.10
2018-08-20T05:47:48.350Z,20.10
2018-08-20T05:50:16.758Z,20.20
2018-08-20T05:52:45.219Z,20.20
2018-08-20T05:55:13.707Z,20.30
2018-08-20T05:57:42.060Z,20.30
2018-08-20T06:00:14.141Z,20.50
2018-08-20T06:02:42.589Z,20.80
2018-08-20T06:05:11.076Z,20.80
2018-08-20T06:07:39.671Z,21.00
2018-08-20T06:10:08.875Z,21.30
2018-08-20T06:12:37.894Z,21.40
2018-08-20T06:15:08.630Z,21.50
2018-08-20T06:17:37.481Z,21.60
2018-08-20T06:20:09.475Z,21.70
2018-08-20T06:22:37.986Z,22.20
2018-08-20T06:25:08.481Z,23.00
2018-08-20T06:27:37.065Z,24.30
2018-08-20T06:30:05.865Z,25.60
2018-08-20T06:32:34.444Z,26.80
2018-08-20T06:35:02.873Z,28.10
2018-08-20T06:37:31.381Z,28.90
2018-08-20T06:39:59.811Z,29.10
2018-08-20T06:42:28.262Z,29.50
2018-08-20T06:44:56.642Z,29.90
2018-08-20T06:47:25.055Z,30.30
2018-08-20T06:49:53.472Z,30.30
2018-08-20T06:52:21.909Z,30.50
2018-08-20T06:54:50.343Z,30.80
2018-08-20T06:57:18.803Z,31.20
2018-08-20T06:59:47.274Z,31.50
2018-08-20T07:02:22.449Z,31.30
2018-08-20T07:04:50.931Z,31.30
2018-08-20T07:07:19.314Z,31.60
2018-08-20T07:09:47.759Z,31.80
2018-08-20T07:12:16.249Z,31.80
2018-08-20T07:14:44.673Z,31.90
2018-08-20T07:17:13.128Z,32.10
2018-08-20T07:19:42.173Z,32.20
2018-08-20T07:22:10.564Z,32.10
2018-08-20T07:24:38.919Z,31.90
2018-08-20T07:27:07.307Z,31.90
2018-08-20T07:29:39.719Z,31.90
2018-08-20T07:32:12.967Z,31.90
2018-08-20T07:34:43.547Z,31.80
2018-08-20T07:37:13.279Z,31.40
2018-08-20T07:39:48.560Z,30.70
2018-08-20T07:42:16.952Z,30.30
2018-08-20T07:44:45.928Z,29.90
2018-08-20T07:47:14.257Z,30.00
2018-08-20T07:49:42.670Z,30.20
2018-08-20T07:52:11.742Z,30.30
2018-08-20T07:54:40.825Z,30.10
2018-08-20T07:57:10.332Z,30.10
2018-08-20T07:59:38.989Z,30.20
2018-08-20T08:02:08.153Z,30.20
2018-08-20T08:04:36.607Z,30.50
2018-08-20T08:07:05.067Z,30.50
2018-08-20T08:09:33.505Z,30.60
2018-08-20T08:12:01.961Z,30.60
2018-08-20T08:14:30.405Z,30.60
2018-08-20T08:16:58.843Z,30.70
2018-08-20T08:19:27.233Z,30.50
2018-08-20T08:21:55.613Z,30.40
2018-08-20T08:24:24.081Z,30.00
2018-08-20T08:26:52.471Z,29.70
2018-08-20T08:29:20.876Z,30.30
2018-08-20T08:31:49.240Z,30.40
2018-08-20T08:34:17.707Z,30.70
2018-08-20T08:36:46.070Z,30.80
2018-08-20T08:39:14.552Z,30.70
2018-08-20T08:41:42.953Z,30.70
2018-08-20T08:44:11.406Z,30.60
2018-08-20T08:46:39.965Z,30.60
2018-08-20T08:49:08.410Z,30.40
2018-08-20T08:51:36.842Z,30.50
2018-08-20T08:54:05.359Z,30.60
2018-08-20T08:56:33.699Z,30.60
2018-08-20T08:59:02.148Z,30.70
2018-08-20T09:01:30.605Z,30.80
2018-08-20T09:03:59.290Z,30.90
2018-08-20T09:06:27.606Z,30.80
2018-08-20T09:08:56.022Z,30.50
2018-08-20T09:11:24.381Z,30.80
2018-08-20T09:13:52.887Z,31.00
2018-08-20T09:16:21.291Z,31.00
2018-08-20T09:18:49.665Z,31.00
2018-08-20T09:21:17.963Z,31.10
2018-08-20T09:23:46.629Z,31.50
2018-08-20T09:26:15.028Z,31.30
2018-08-20T09:28:43.549Z,31.20
2018-08-20T09:31:11.892Z,31.30
2018-08-20T09:33:40.469Z,31.40
2018-08-20T09:36:08.892Z,31.10
2018-08-20T09:38:37.323Z,31.00
2018-08-20T09:41:05.864Z,30.70
2018-08-20T09:43:34.251Z,30.90
2018-08-20T09:46:02.601Z,31.10
2018-08-20T09:48:31.333Z,31.20
2018-08-20T09:50:59.762Z,30.90
2018-08-20T09:53:28.158Z,31.10
2018-08-20T09:55:56.512Z,31.30
2018-08-20T09:58:24.940Z,31.60
2018-08-20T10:00:53.351Z,31.20
2018-08-20T10:03:21.951Z,31.10
2018-08-20T10:05:50.312Z,30.70
2018-08-20T10:08:18.749Z,31.00
2018-08-20T10:10:47.069Z,31.10
2018-08-20T10:13:15.479Z,31.40
2018-08-20T10:15:43.848Z,31.10
2018-08-20T10:18:12.264Z,31.40
2018-08-20T10:20:40.763Z,31.50
2018-08-20T10:23:09.249Z,31.30
2018-08-20T10:25:37.671Z,31.20
2018-08-20T10:28:06.205Z,31.30
2018-08-20T10:30:34.605Z,31.10
2018-08-20T10:33:03.149Z,30.80
2018-08-20T10:35:31.599Z,31.30
2018-08-20T10:37:59.996Z,31.40
2018-08-20T10:40:28.501Z,31.50
2018-08-20T10:42:57.065Z,31.10
2018-08-20T10:46:31.474Z,30.90
2018-08-20T10:48:59.931Z,30.20
2018-08-20T10:51:28.345Z,31.10
2018-08-20T10:53:56.801Z,31.30
2018-08-20T10:56:25.157Z,31.40
2018-08-20T10:58:53.690Z,31.70
2018-08-20T11:01:22.015Z,32.00
2018-08-20T11:03:57.645Z,32.30
2018-08-20T11:06:27.203Z,32.20
2018-08-20T11:08:55.763Z,32.20
2018-08-20T11:11:24.236Z,31.90
2018-08-20T11:13:54.316Z,32.00
2018-08-20T11:16:22.794Z,32.10
2018-08-20T11:18:51.238Z,32.30
2018-08-20T11:21:19.659Z,32.30
2018-08-20T11:23:48.129Z,32.00
2018-08-20T11:26:16.575Z,32.20
2018-08-20T11:28:45.181Z,32.10
2018-08-20T11:32:07.113Z,32.30
2018-08-20T11:34:38.280Z,32.30
2018-08-20T11:37:07.261Z,32.10
2018-08-20T11:39:35.655Z,31.70
2018-08-20T11:42:04.023Z,31.20
2018-08-20T11:44:32.411Z,31.30
2018-08-20T11:47:01.740Z,31.30
2018-08-20T11:49:30.159Z,31.20
2018-08-20T11:51:58.547Z,31.30
2018-08-20T11:54:26.961Z,31.00
2018-08-20T11:56:55.332Z,31.30
2018-08-20T11:59:23.712Z,31.40
2018-08-20T12:01:52.174Z,31.60
2018-08-20T12:04:22.405Z,31.70
2018-08-20T12:06:51.288Z,31.70
2018-08-20T12:09:19.758Z,31.90
2018-08-20T12:11:48.304Z,31.90
2018-08-20T12:14:16.795Z,31.80
2018-08-20T12:16:45.156Z,31.70
2018-08-20T12:19:13.600Z,31.70
2018-08-20T12:21:42.043Z,31.70
2018-08-20T12:24:10.575Z,31.40
2018-08-20T12:26:38.924Z,31.40
2018-08-20T12:29:07.307Z,31.40
2018-08-20T12:31:35.714Z,31.40
2018-08-20T12:34:04.122Z,31.30
2018-08-20T12:36:32.616Z,31.20
2018-08-20T12:39:01.012Z,30.80
2018-08-20T12:41:29.541Z,30.80
2018-08-20T12:43:57.966Z,30.90
2018-08-20T12:46:26.637Z,30.90
2018-08-20T12:48:55.094Z,31.00
2018-08-20T12:51:23.489Z,30.80
2018-08-20T12:53:51.933Z,30.60
2018-08-20T12:56:20.925Z,30.30
2018-08-20T12:58:51.269Z,30.30
2018-08-20T13:01:19.840Z,30.50
2018-08-20T13:03:48.926Z,30.40
2018-08-20T13:06:17.316Z,30.40
2018-08-20T13:08:46.714Z,30.40
2018-08-20T13:11:15.395Z,30.30
2018-08-20T13:13:43.855Z,30.50
2018-08-20T13:16:12.358Z,30.40
2018-08-20T13:18:40.699Z,30.50
2018-08-20T13:21:09.111Z,30.40
2018-08-20T13:23:37.580Z,30.30
2018-08-20T13:26:06.304Z,30.00
2018-08-20T13:28:34.742Z,30.00
2018-08-20T13:31:03.647Z,30.10
2018-08-20T13:33:32.087Z,30.00
2018-08-20T13:36:00.465Z,29.80
2018-08-20T13:38:28.908Z,29.70
2018-08-20T13:40:57.290Z,29.80
2018-08-20T13:43:25.678Z,30.00
2018-08-20T13:45:54.128Z,30.10
2018-08-20T13:48:22.518Z,30.30
2018-08-20T13:50:51.078Z,30.10
2018-08-20T13:53:19.656Z,29.90
2018-08-20T13:55:48.021Z,29.80
2018-08-20T13:58:16.801Z,29.90
2018-08-20T14:00:45.184Z,29.80
2018-08-20T14:03:13.601Z,29.80
2018-08-20T14:05:41.974Z,29.70
2018-08-20T14:08:10.507Z,29.70
2018-08-20T14:10:38.879Z,29.70
2018-08-20T14:13:07.470Z,29.40
2018-08-20T14:15:36.029Z,29.30
2018-08-20T14:18:04.418Z,29.40
2018-08-20T14:20:32.808Z,29.30
2018-08-20T14:23:01.712Z,29.10
2018-08-20T14:25:30.228Z,28.80
2018-08-20T14:27:58.763Z,28.70
2018-08-20T14:30:27.192Z,29.10
2018-08-20T14:32:55.548Z,29.30
2018-08-20T14:35:23.931Z,29.20
2018-08-20T14:37:52.327Z,29.20
2018-08-20T14:40:20.788Z,29.30
2018-08-20T14:42:49.217Z,29.40
2018-08-20T14:45:17.651Z,29.40
2018-08-20T14:47:46.368Z,29.50
2018-08-20T14:50:16.595Z,29.50
2018-08-20T14:52:45.110Z,29.40
2018-08-20T14:55:13.764Z,29.40
2018-08-20T14:57:42.242Z,29.40
2018-08-20T15:00:12.943Z,29.20
2018-08-20T15:02:41.301Z,29.50
2018-08-20T15:05:10.010Z,29.70
2018-08-20T15:07:38.711Z,29.60
2018-08-20T15:10:08.078Z,29.50
2018-08-20T15:12:36.703Z,29.40
2018-08-20T15:15:06.279Z,29.30
2018-08-20T15:17:34.555Z,29.30
2018-08-20T15:20:03.045Z,29.40
2018-08-20T15:22:31.392Z,29.40
2018-08-20T15:24:59.815Z,29.40
2018-08-20T15:27:28.229Z,29.60
2018-08-20T15:29:56.707Z,29.50
2018-08-20T15:32:25.063Z,29.60
2018-08-20T15:34:53.385Z,29.60
2018-08-20T15:37:21.770Z,29.60
2018-08-20T15:39:50.107Z,29.60
2018-08-20T15:42:18.500Z,29.50
2018-08-20T15:44:46.890Z,29.50
2018-08-20T15:47:15.296Z,29.60
2018-08-20T15:49:43.636Z,29.50
2018-08-20T15:52:12.050Z,29.40
2018-08-20T15:54:40.451Z,29.30
2018-08-20T15:57:08.914Z,29.40
2018-08-20T15:59:37.224Z,29.40
2018-08-20T16:02:05.912Z,29.30
2018-08-20T16:04:34.280Z,29.20
2018-08-20T16:07:02.763Z,29.20
2018-08-20T16:09:31.142Z,29.20
2018-08-20T16:11:59.616Z,29.20
2018-08-20T16:14:28.004Z,29.10
2018-08-20T16:16:56.716Z,28.90
2018-08-20T16:19:25.086Z,28.70
2018-08-20T16:21:53.443Z,28.80
2018-08-20T16:24:21.895Z,28.90
2018-08-20T16:26:50.440Z,28.80
2018-08-20T16:29:18.794Z,28.80
2018-08-20T16:31:47.189Z,28.90
2018-08-20T16:34:15.643Z,28.80
2018-08-20T16:36:44.172Z,28.80
2018-08-20T16:39:13.211Z,28.70
2018-08-20T16:41:41.703Z,28.70
2018-08-20T16:44:10.899Z,28.70
2018-08-20T16:46:39.682Z,28.80
2018-08-20T16:49:09.997Z,28.50
2018-08-20T16:51:38.479Z,28.40
2018-08-20T16:54:07.473Z,28.30
2018-08-20T16:56:36.151Z,28.20
2018-08-20T16:59:04.938Z,28.30
2018-08-20T17:01:33.599Z,28.20
2018-08-20T17:04:02.145Z,28.20
2018-08-20T17:06:46.185Z,28.20
2018-08-20T17:09:14.622Z,28.20
2018-08-20T17:11:43.005Z,28.10
2018-08-20T17:14:11.367Z,28.20
2018-08-20T17:16:39.774Z,28.10
2018-08-20T17:19:08.166Z,28.00
2018-08-20T17:21:36.449Z,27.80
2018-08-20T17:24:04.850Z,27.80
2018-08-20T17:26:33.338Z,27.80
2018-08-20T17:29:06.712Z,27.80
2018-08-20T17:31:35.132Z,27.70
2018-08-20T17:34:05.005Z,27.70
2018-08-20T17:36:33.419Z,27.70
2018-08-20T17:39:02.173Z,27.60
2018-08-20T17:41:30.583Z,27.70
2018-08-20T17:43:58.992Z,27.60
2018-08-20T17:46:27.390Z,27.60
2018-08-20T17:48:55.721Z,27.50
2018-08-20T17:51:24.220Z,27.50
2018-08-20T17:53:54.164Z,27.40
2018-08-20T17:56:22.593Z,27.30
2018-08-20T17:58:58.983Z,27.20
2018-08-20T18:01:27.764Z,27.10
2018-08-20T18:03:56.089Z,27.10
2018-08-20T18:06:38.761Z,27.10
2018-08-20T18:09:07.105Z,27.10
2018-08-20T18:11:39.957Z,27.10
2018-08-20T18:14:08.589Z,27.00
2018-08-20T18:16:37.059Z,26.90
2018-08-20T18:19:05.395Z,26.90
2018-08-20T18:21:33.796Z,26.90
2018-08-20T18:24:02.109Z,26.90
2018-08-20T18:26:35.671Z,26.90
2018-08-20T18:29:04.367Z,26.80
2018-08-20T18:31:32.698Z,26.70
2018-08-20T18:34:01.113Z,26.50
2018-08-20T18:36:30.956Z,26.40
2018-08-20T18:39:04.383Z,26.30
2018-08-20T18:41:54.058Z,26.40
2018-08-20T18:44:23.652Z,26.20
2018-08-20T18:46:52.425Z,26.10
2018-08-20T18:49:21.922Z,26.00
2018-08-20T18:52:02.086Z,25.80
2018-08-20T18:54:35.979Z,25.70
2018-08-20T18:57:05.297Z,25.60
2018-08-20T18:59:35.390Z,25.50
2018-08-20T19:02:04.017Z,25.40
2018-08-20T19:04:41.632Z,25.30
2018-08-20T19:07:11.300Z,25.30
2018-08-20T19:09:40.568Z,25.30
2018-08-20T19:12:09.259Z,25.30
2018-08-20T19:14:37.661Z,25.20
2018-08-20T19:17:13.226Z,25.20
2018-08-20T19:19:45.886Z,25.20
2018-08-20T19:22:19.875Z,25.10
2018-08-20T19:24:48.373Z,25.00
2018-08-20T19:27:16.794Z,24.90
2018-08-20T19:29:45.216Z,24.80
2018-08-20T19:32:13.651Z,24.70
2018-08-20T19:34:41.996Z,24.60
2018-08-20T19:37:10.401Z,24.50
2018-08-20T19:39:38.852Z,24.40
2018-08-20T19:42:07.703Z,24.40
2018-08-20T19:44:36.135Z,24.30
2018-08-20T19:47:04.473Z,24.20
2018-08-20T19:49:32.802Z,24.10
2018-08-20T19:52:01.204Z,24.00
2018-08-20T19:54:29.652Z,23.90
2018-08-20T19:56:58.110Z,23.80
2018-08-20T19:59:31.946Z,23.70
2018-08-20T20:02:00.478Z,23.70
2018-08-20T20:04:28.855Z,23.70
2018-08-20T20:06:57.208Z,23.50
2018-08-20T20:09:25.606Z,23.50
2018-08-20T20:11:54.103Z,23.60
2018-08-20T20:14:22.581Z,23.50
2018-08-20T20:16:52.992Z,23.40
2018-08-20T20:19:21.555Z,23.30
2018-08-20T20:21:50.022Z,23.30
2018-08-20T20:24:18.424Z,23.30
2018-08-20T20:26:46.912Z,23.20
2018-08-20T20:29:15.448Z,23.10
2018-08-20T20:31:43.951Z,23.00
2018-08-20T20:34:12.864Z,23.00
2018-08-20T20:36:41.328Z,23.00
2018-08-20T20:39:11.637Z,22.90
2018-08-20T20:41:40.119Z,22.80
2018-08-20T20:44:09.353Z,22.80
2018-08-20T20:46:37.899Z,22.80
2018-08-20T20:49:06.405Z,22.70
2018-08-20T20:51:34.788Z,22.60
2018-08-20T20:54:03.271Z,22.60
2018-08-20T20:56:31.660Z,22.60
2018-08-20T20:58:59.941Z,22.50
2018-08-20T21:01:28.299Z,22.40
2018-08-20T21:04:02.743Z,22.50
2018-08-20T21:06:31.150Z,22.40
2018-08-20T21:08:59.552Z,22.40
2018-08-20T21:11:28.016Z,22.30
2018-08-20T21:13:56.427Z,22.30
2018-08-20T21:16:25.546Z,22.20
2018-08-20T21:18:55.149Z,22.20
2018-08-20T21:21:24.383Z,22.20
2018-08-20T21:23:52.745Z,22.30
2018-08-20T21:26:21.161Z,22.30
2018-08-20T21:28:52.510Z,22.30
2018-08-20T21:31:22.133Z,22.30
2018-08-20T21:33:56.053Z,22.30
2018-08-20T21:36:24.523Z,22.30
2018-08-20T21:38:53.528Z,22.20
2018-08-20T21:41:22.715Z,22.20
2018-08-20T21:43:51.615Z,22.20
2018-08-20T21:46:20.039Z,22.20
2018-08-20T21:48:48.479Z,22.20
2018-08-20T21:51:31.044Z,22.10
2018-08-20T21:53:59.455Z,22.00
2018-08-20T21:57:33.192Z,21.90
2018-08-20T22:00:07.665Z,21.90
2018-08-20T22:02:36.132Z,21.90
2018-08-20T22:05:04.530Z,21.80
2018-08-20T22:07:35.716Z,21.80
2018-08-20T22:10:04.814Z,21.80
2018-08-20T22:12:33.135Z,21.80
2018-08-20T22:15:01.520Z,21.70
2018-08-20T22:17:30.817Z,21.70
2018-08-20T22:19:59.740Z,21.70
2018-08-20T22:22:28.510Z,21.70
2018-08-20T22:24:58.933Z,21.60
2018-08-20T22:27:28.144Z,21.50
2018-08-20T22:30:01.147Z,21.60
2018-08-20T22:32:29.864Z,21.50
2018-08-20T22:34:58.541Z,21.50
2018-08-20T22:37:27.117Z,21.30
2018-08-20T22:40:00.751Z,21.30
2018-08-20T22:42:41.580Z,21.30
2018-08-20T22:45:11.423Z,21.20
2018-08-20T22:47:40.005Z,21.20
2018-08-20T22:50:08.720Z,21.10
2018-08-20T22:52:37.327Z,21.10
2018-08-20T22:55:07.277Z,21.20
2018-08-20T22:57:35.652Z,21.10
2018-08-20T23:00:11.772Z,21.00
2018-08-20T23:02:40.289Z,21.00
2018-08-20T23:05:12.925Z,20.90
2018-08-20T23:07:41.382Z,20.80
2018-08-20T23:10:09.714Z,20.80
2018-08-20T23:12:42.091Z,20.60
2018-08-20T23:15:12.243Z,20.60
2018-08-20T23:17:41.020Z,20.60
2018-08-20T23:20:17.452Z,20.60
2018-08-20T23:22:45.932Z,20.60
2018-08-20T23:25:14.382Z,20.50
2018-08-20T23:27:42.893Z,20.50
2018-08-20T23:30:12.695Z,20.50
2018-08-20T23:32:41.107Z,20.40
2018-08-20T23:35:09.482Z,20.30
2018-08-20T23:37:37.874Z,20.30
2018-08-20T23:40:06.528Z,20.30
2018-08-20T23:42:34.952Z,20.20
2018-08-20T23:45:03.402Z,20.20
2018-08-20T23:47:31.862Z,20.10
2018-08-20T23:50:00.439Z,20.10
2018-08-20T23:52:28.869Z,20.20
2018-08-20T23:54:57.297Z,20.10
2018-08-20T23:57:25.701Z,20.10
2018-08-20T23:59:54.072Z,20.10
